createdAt,value
2018-11-14T00:00:31.081Z,5.60
2018-11-14T00:03:00.796Z,5.70
2018-11-14T00:05:29.702Z,5.70
2018-11-14T00:07:59.070Z,5.80
2018-11-14T00:10:28.121Z,5.60
2018-11-14T00:13:00.614Z,5.50
2018-11-14T00:15:32.217Z,5.50
2018-11-14T00:18:01.295Z,5.40
2018-11-14T00:20:30.724Z,5.60
2018-11-14T00:23:00.456Z,5.60
2018-11-14T00:25:29.390Z,5.50
2018-11-14T00:27:58.584Z,5.40
2018-11-14T00:30:27.768Z,5.40
2018-11-14T00:32:57.416Z,5.50
2018-11-14T00:35:28.403Z,5.40
2018-11-14T00:37:57.572Z,5.40
2018-11-14T00:40:26.927Z,5.40
2018-11-14T00:42:56.778Z,5.30
2018-11-14T00:45:26.086Z,5.30
2018-11-14T00:47:56.695Z,5.40
2018-11-14T00:50:25.797Z,5.40
2018-11-14T00:52:55.185Z,5.30
2018-11-14T00:55:24.180Z,5.40
2018-11-14T00:57:53.469Z,5.40
2018-11-14T01:00:23.709Z,5.40
2018-11-14T01:02:52.905Z,5.30
2018-11-14T01:05:22.072Z,5.30
2018-11-14T01:07:51.086Z,5.20
2018-11-14T01:10:21.295Z,5.20
2018-11-14T01:12:50.875Z,5.20
2018-11-14T01:15:20.763Z,5.20
2018-11-14T01:17:50.153Z,5.20
2018-11-14T01:20:20.590Z,5.20
2018-11-14T01:22:50.094Z,5.20
2018-11-14T01:25:19.562Z,5.10
2018-11-14T01:27:48.739Z,5.00
2018-11-14T01:30:19.015Z,5.10
2018-11-14T01:32:48.495Z,5.10
2018-11-14T01:35:17.928Z,5.20
2018-11-14T01:37:46.881Z,5.20
2018-11-14T01:40:18.311Z,5.20
2018-11-14T01:42:48.506Z,5.20
2018-11-14T01:45:17.525Z,5.10
2018-11-14T01:47:53.746Z,5.00
2018-11-14T01:50:22.641Z,5.10
2018-11-14T01:52:51.663Z,4.80
2018-11-14T01:56:46.401Z,4.80
2018-11-14T01:59:14.816Z,4.90
2018-11-14T02:01:43.615Z,5.00
2018-11-14T02:04:12.172Z,5.00
2018-11-14T02:06:41.066Z,4.90
2018-11-14T02:09:10.589Z,5.00
2018-11-14T02:11:39.314Z,5.00
2018-11-14T02:14:07.936Z,5.10
2018-11-14T02:16:36.398Z,4.90
2018-11-14T02:19:05.211Z,4.90
2018-11-14T02:21:34.562Z,5.00
2018-11-14T02:24:03.439Z,5.00
2018-11-14T02:26:32.125Z,4.90
2018-11-14T02:29:01.145Z,4.90
2018-11-14T02:31:29.852Z,5.00
2018-11-14T02:33:58.538Z,5.00
2018-11-14T02:36:27.333Z,5.00
2018-11-14T02:38:55.996Z,5.00
2018-11-14T02:41:24.602Z,5.00
2018-11-14T02:43:53.408Z,5.00
2018-11-14T02:46:22.308Z,5.00
2018-11-14T02:48:50.968Z,4.90
2018-11-14T02:51:26.033Z,4.90
2018-11-14T02:53:54.928Z,4.90
2018-11-14T02:56:23.437Z,4.90
2018-11-14T02:58:52.268Z,4.90
2018-11-14T03:01:21.150Z,4.80
2018-11-14T03:03:49.839Z,4.80
2018-11-14T03:06:18.543Z,4.80
2018-11-14T03:08:47.811Z,4.90
2018-11-14T03:11:16.597Z,4.90
2018-11-14T03:13:45.190Z,4.90
2018-11-14T03:16:13.962Z,4.80
2018-11-14T03:18:42.675Z,4.70
2018-11-14T03:21:11.265Z,4.70
2018-11-14T03:23:39.913Z,4.70
2018-11-14T03:26:08.730Z,4.80
2018-11-14T03:28:37.633Z,4.80
2018-11-14T03:31:06.539Z,4.70
2018-11-14T03:33:35.071Z,4.70
2018-11-14T03:36:08.895Z,4.70
2018-11-14T03:38:37.492Z,4.80
2018-11-14T03:41:06.253Z,4.80
2018-11-14T03:43:34.860Z,4.80
2018-11-14T03:46:03.393Z,4.70
2018-11-14T03:48:31.799Z,4.80
2018-11-14T03:51:00.383Z,4.80
2018-11-14T03:53:28.937Z,4.80
2018-11-14T03:55:57.514Z,4.70
2018-11-14T03:58:26.276Z,4.70
2018-11-14T04:00:54.801Z,4.80
2018-11-14T04:03:23.409Z,4.70
2018-11-14T04:05:53.242Z,4.70
2018-11-14T04:08:22.231Z,4.60
2018-11-14T04:10:51.019Z,4.60
2018-11-14T04:13:19.706Z,4.40
2018-11-14T04:15:48.394Z,4.40
2018-11-14T04:18:16.835Z,4.50
2018-11-14T04:20:45.348Z,4.30
2018-11-14T04:23:14.110Z,4.20
2018-11-14T04:25:42.755Z,4.30
2018-11-14T04:28:11.492Z,4.40
2018-11-14T04:30:40.511Z,4.60
2018-11-14T04:33:09.194Z,4.70
2018-11-14T04:35:38.088Z,4.70
2018-11-14T04:38:06.771Z,4.70
2018-11-14T04:40:35.568Z,4.70
2018-11-14T04:43:04.416Z,4.70
2018-11-14T04:45:33.241Z,4.60
2018-11-14T04:48:02.089Z,4.50
2018-11-14T04:50:30.681Z,4.60
2018-11-14T04:52:59.500Z,4.60
2018-11-14T04:55:28.502Z,4.60
2018-11-14T04:57:57.193Z,4.60
2018-11-14T05:00:26.688Z,4.60
2018-11-14T05:02:55.398Z,4.50
2018-11-14T05:05:24.926Z,4.40
2018-11-14T05:07:53.995Z,4.40
2018-11-14T05:10:24.077Z,4.30
2018-11-14T05:17:54.349Z,4.40
2018-11-14T05:20:23.594Z,4.50
2018-11-14T05:22:52.786Z,4.50
2018-11-14T05:25:21.641Z,4.50
2018-11-14T05:27:50.303Z,4.50
2018-11-14T05:30:20.547Z,4.50
2018-11-14T05:32:50.169Z,4.40
2018-11-14T05:35:18.909Z,4.50
2018-11-14T05:37:48.203Z,4.50
2018-11-14T05:40:19.112Z,4.40
2018-11-14T05:42:48.677Z,4.40
2018-11-14T05:45:18.884Z,4.50
2018-11-14T05:47:47.506Z,4.40
2018-11-14T05:50:17.732Z,4.40
2018-11-14T05:52:46.588Z,4.50
2018-11-14T05:55:15.571Z,4.30
2018-11-14T05:57:44.292Z,4.20
2018-11-14T06:00:29.455Z,4.10
2018-11-14T06:02:58.641Z,4.20
2018-11-14T06:05:27.533Z,4.10
2018-11-14T06:07:56.311Z,3.80
2018-11-14T06:10:24.881Z,3.70
2018-11-14T06:12:53.655Z,3.80
2018-11-14T06:16:48.925Z,3.80
2018-11-14T06:19:17.718Z,4.00
2018-11-14T06:21:46.751Z,4.00
2018-11-14T06:24:15.606Z,4.10
2018-11-14T06:26:44.420Z,4.00
2018-11-14T06:29:13.159Z,4.00
2018-11-14T06:31:42.167Z,3.90
2018-11-14T06:34:11.072Z,3.90
2018-11-14T06:36:39.976Z,4.00
2018-11-14T06:39:10.598Z,4.00
2018-11-14T06:41:40.220Z,4.00
2018-11-14T06:44:10.003Z,3.90
2018-11-14T06:46:38.958Z,3.90
2018-11-14T06:49:09.529Z,4.00
2018-11-14T06:51:39.760Z,4.00
2018-11-14T06:54:10.156Z,4.00
2018-11-14T06:56:38.978Z,4.00
2018-11-14T06:59:07.976Z,4.10
2018-11-14T07:01:37.230Z,3.60
2018-11-14T07:04:06.257Z,3.40
2018-11-14T07:13:05.663Z,3.90
2018-11-14T07:15:35.358Z,4.00
2018-11-14T07:18:06.121Z,4.00
2018-11-14T07:20:38.048Z,4.00
2018-11-14T07:23:07.428Z,4.00
2018-11-14T07:25:36.522Z,4.10
2018-11-14T07:28:05.381Z,4.20
2018-11-14T07:30:35.431Z,4.20
2018-11-14T07:33:05.914Z,4.30
2018-11-14T07:35:36.132Z,4.30
2018-11-14T07:38:33.314Z,4.30
2018-11-14T07:41:03.642Z,4.30
2018-11-14T07:43:33.193Z,4.30
2018-11-14T07:46:01.855Z,4.30
2018-11-14T07:48:31.192Z,4.10
2018-11-14T07:51:00.500Z,4.50
2018-11-14T07:53:29.183Z,3.90
2018-11-14T07:55:58.334Z,3.80
2018-11-14T07:58:27.286Z,3.60
2018-11-14T08:00:56.701Z,3.60
2018-11-14T08:03:26.008Z,3.70
2018-11-14T08:05:55.864Z,3.80
2018-11-14T08:08:25.527Z,3.80
2018-11-14T08:10:55.637Z,3.80
2018-11-14T08:13:25.908Z,3.90
2018-11-14T08:15:56.831Z,3.90
2018-11-14T08:18:25.840Z,3.90
2018-11-14T08:20:55.739Z,4.00
2018-11-14T08:23:24.960Z,4.00
2018-11-14T08:25:53.669Z,4.10
2018-11-14T08:28:22.664Z,4.20
2018-11-14T08:30:51.603Z,4.20
2018-11-14T08:33:20.612Z,4.30
2018-11-14T08:35:49.651Z,4.30
2018-11-14T08:38:18.920Z,4.40
2018-11-14T08:40:48.039Z,4.50
2018-11-14T08:43:17.142Z,4.50
2018-11-14T08:45:47.021Z,4.50
2018-11-14T08:48:16.320Z,4.50
2018-11-14T08:50:45.322Z,4.60
2018-11-14T08:53:14.579Z,4.70
2018-11-14T08:55:43.379Z,4.70
2018-11-14T08:58:13.063Z,4.80
2018-11-14T09:00:42.379Z,4.80
2018-11-14T09:03:12.440Z,4.80
2018-11-14T09:05:41.341Z,4.80
2018-11-14T09:08:10.198Z,4.80
2018-11-14T09:10:39.101Z,4.80
2018-11-14T09:13:12.416Z,4.80
2018-11-14T09:15:41.167Z,4.80
2018-11-14T09:18:10.356Z,4.90
2018-11-14T09:20:39.551Z,4.90
2018-11-14T09:23:10.385Z,5.00
2018-11-14T09:25:39.632Z,5.00
2018-11-14T09:28:08.414Z,5.00
2018-11-14T09:30:37.779Z,5.20
2018-11-14T09:33:07.356Z,5.30
2018-11-14T09:35:36.434Z,5.40
2018-11-14T09:38:05.569Z,5.60
2018-11-14T09:40:35.666Z,5.70
2018-11-14T09:43:04.851Z,5.80
2018-11-14T09:45:33.839Z,5.90
2018-11-14T09:48:02.953Z,6.00
2018-11-14T09:50:32.829Z,6.10
2018-11-14T10:19:02.645Z,6.40
2018-11-14T10:21:31.526Z,7.20
2018-11-14T10:24:00.779Z,7.30
2018-11-14T10:26:29.406Z,7.40
2018-11-14T10:28:58.817Z,7.40
2018-11-14T10:31:28.336Z,7.50
2018-11-14T10:33:57.361Z,7.50
2018-11-14T10:36:26.677Z,7.60
2018-11-14T10:38:56.100Z,7.70
2018-11-14T10:41:26.048Z,7.70
2018-11-14T10:43:55.242Z,7.80
2018-11-14T10:46:24.868Z,7.90
2018-11-14T10:48:54.476Z,7.80
2018-11-14T10:51:23.909Z,7.80
2018-11-14T10:53:52.616Z,7.90
2018-11-14T10:56:21.686Z,7.90
2018-11-14T10:58:50.975Z,8.00
2018-11-14T11:01:24.935Z,8.10
2018-11-14T11:04:01.393Z,8.20
2018-11-14T11:06:36.165Z,8.30
2018-11-14T11:09:15.017Z,8.40
2018-11-14T11:11:49.181Z,8.50
2018-11-14T11:14:23.352Z,8.60
2018-11-14T11:17:56.929Z,8.60
2018-11-14T11:20:26.623Z,8.70
2018-11-14T11:22:55.659Z,8.80
2018-11-14T11:25:28.614Z,8.80
2018-11-14T11:28:04.696Z,8.80
2018-11-14T11:30:34.702Z,8.90
2018-11-14T11:33:04.388Z,9.00
2018-11-14T11:35:49.827Z,9.00
2018-11-14T11:38:22.659Z,9.10
2018-11-14T11:40:52.222Z,9.10
2018-11-14T11:43:25.633Z,9.00
2018-11-14T11:46:01.165Z,9.10
2018-11-14T11:48:36.275Z,9.10
2018-11-14T11:51:08.265Z,9.20
2018-11-14T11:54:01.257Z,9.20
2018-11-14T11:56:35.222Z,9.20
2018-11-14T11:59:05.372Z,9.30
2018-11-14T12:33:34.612Z,9.50
2018-11-14T14:18:13.235Z,10.20
2018-11-14T14:27:08.379Z,10.50
2018-11-14T14:29:55.560Z,10.00
2018-11-14T14:32:56.026Z,9.80
2018-11-14T14:35:30.040Z,9.70
2018-11-14T14:37:59.548Z,9.60
2018-11-14T14:40:28.913Z,9.50
2018-11-14T15:43:21.824Z,9.00
2018-11-14T15:46:08.754Z,7.70
2018-11-14T15:48:38.922Z,7.60
2018-11-14T15:51:08.474Z,7.60
2018-11-14T15:53:39.147Z,7.50
2018-11-14T15:56:09.121Z,7.50
2018-11-14T15:58:38.140Z,7.40
2018-11-14T16:01:23.231Z,7.30
2018-11-14T16:19:13.808Z,7.10
2018-11-14T16:21:50.588Z,7.00
2018-11-14T16:24:20.606Z,7.00
2018-11-14T16:26:58.353Z,7.00
2018-11-14T16:29:36.906Z,6.90
2018-11-14T16:44:29.513Z,6.80
2018-11-14T16:47:12.407Z,6.70
2018-11-14T16:49:41.810Z,6.70
2018-11-14T16:52:10.742Z,6.70
2018-11-14T16:54:39.666Z,6.70
2018-11-14T16:57:08.422Z,6.60
2018-11-14T16:59:37.321Z,6.60
2018-11-14T17:02:06.117Z,6.60
2018-11-14T17:07:35.778Z,6.50
2018-11-14T17:10:12.890Z,6.50
2018-11-14T17:12:49.642Z,6.50
2018-11-14T17:15:26.919Z,6.50
2018-11-14T17:17:56.574Z,6.50
2018-11-14T17:20:35.773Z,6.50
2018-11-14T17:23:04.762Z,6.50
2018-11-14T17:25:34.025Z,6.40
2018-11-14T17:28:02.798Z,6.40
2018-11-14T17:30:32.106Z,6.40
2018-11-14T17:33:01.075Z,6.30
2018-11-14T17:35:30.074Z,6.40
2018-11-14T17:37:59.384Z,6.30
2018-11-14T17:40:29.284Z,6.30
2018-11-14T17:43:00.510Z,6.20
2018-11-14T17:45:31.134Z,6.30
2018-11-14T17:48:00.725Z,6.20
2018-11-14T17:50:32.147Z,6.20
2018-11-14T17:53:02.171Z,6.20
2018-11-14T17:55:31.585Z,6.10
2018-11-14T17:58:00.560Z,6.20
2018-11-14T18:00:32.151Z,6.10
2018-11-14T18:03:01.697Z,6.10
2018-11-14T18:05:31.554Z,6.10
2018-11-14T18:08:00.368Z,6.10
2018-11-14T18:10:30.249Z,6.10
2018-11-14T18:12:59.932Z,6.00
2018-11-14T18:15:28.823Z,6.00
2018-11-14T18:17:58.209Z,6.00
2018-11-14T18:20:28.499Z,6.00
2018-11-14T18:22:57.661Z,5.90
2018-11-14T18:25:26.675Z,5.90
2018-11-14T18:28:12.121Z,5.90
2018-11-14T18:30:45.152Z,5.90
2018-11-14T18:36:12.399Z,5.90
2018-11-14T18:39:11.199Z,5.90
2018-11-14T18:41:40.096Z,5.80
2018-11-14T18:47:02.342Z,5.80
2018-11-14T18:49:34.784Z,5.80
2018-11-14T18:52:03.448Z,5.80
2018-11-14T18:54:32.229Z,5.80
2018-11-14T18:57:01.031Z,5.80
2018-11-14T18:59:29.860Z,5.80
2018-11-14T19:01:58.557Z,5.70
2018-11-14T19:04:27.445Z,5.70
2018-11-14T19:06:56.179Z,5.70
2018-11-14T19:09:24.900Z,5.70
2018-11-14T19:11:53.797Z,5.60
2018-11-14T19:14:23.150Z,5.60
2018-11-14T19:16:52.751Z,5.60
2018-11-14T19:19:21.422Z,5.60
2018-11-14T19:21:50.354Z,5.60
2018-11-14T19:24:19.025Z,5.50
2018-11-14T19:26:47.864Z,5.60
2018-11-14T19:29:16.950Z,5.40
2018-11-14T19:31:46.022Z,5.40
2018-11-14T19:34:14.963Z,5.40
2018-11-14T19:36:43.711Z,5.40
2018-11-14T19:39:13.446Z,5.40
2018-11-14T19:41:42.333Z,5.40
2018-11-14T19:44:11.078Z,5.40
2018-11-14T19:46:40.059Z,5.30
2018-11-14T19:49:09.157Z,5.30
2018-11-14T19:51:38.232Z,5.30
2018-11-14T19:54:07.064Z,5.20
2018-11-14T19:56:36.083Z,5.20
2018-11-14T19:59:04.955Z,5.30
2018-11-14T20:01:33.956Z,5.20
2018-11-14T20:04:03.162Z,5.30
2018-11-14T20:06:32.183Z,5.20
2018-11-14T20:09:00.934Z,5.30
2018-11-14T20:11:30.027Z,5.20
2018-11-14T20:13:59.036Z,5.20
2018-11-14T20:16:28.077Z,5.20
2018-11-14T20:18:56.922Z,5.20
2018-11-14T20:21:25.916Z,5.10
2018-11-14T20:23:54.994Z,5.10
2018-11-14T20:26:24.195Z,5.10
2018-11-14T20:28:53.155Z,5.10
2018-11-14T20:31:22.100Z,5.20
2018-11-14T20:33:51.041Z,5.20
2018-11-14T20:36:19.953Z,5.20
2018-11-14T20:38:49.095Z,5.20
2018-11-14T20:41:18.039Z,5.10
2018-11-14T20:43:46.756Z,5.20
2018-11-14T20:46:15.581Z,5.20
2018-11-14T20:48:44.322Z,5.20
2018-11-14T20:51:13.112Z,5.20
2018-11-14T20:53:42.113Z,5.10
2018-11-14T20:56:10.867Z,5.20
2018-11-14T20:58:39.801Z,5.10
2018-11-14T21:01:08.791Z,5.10
2018-11-14T21:03:37.815Z,5.10
2018-11-14T21:06:06.846Z,5.10
2018-11-14T21:08:35.658Z,5.20
2018-11-14T21:11:04.576Z,5.20
2018-11-14T21:13:33.841Z,5.20
2018-11-14T21:16:02.780Z,5.20
2018-11-14T21:18:31.471Z,5.30
2018-11-14T21:21:00.893Z,5.30
2018-11-14T21:23:29.630Z,5.30
2018-11-14T21:25:58.780Z,5.20
2018-11-14T21:28:27.443Z,5.30
2018-11-14T21:30:56.303Z,5.30
2018-11-14T21:33:25.257Z,5.30
2018-11-14T21:35:54.356Z,5.20
2018-11-14T21:38:23.709Z,5.20
2018-11-14T21:40:53.391Z,5.20
2018-11-14T21:43:22.373Z,5.10
2018-11-14T21:45:51.087Z,5.20
2018-11-14T21:48:19.944Z,5.10
2018-11-14T21:50:48.781Z,5.00
2018-11-14T21:53:17.677Z,5.00
2018-11-14T21:55:46.642Z,4.90
2018-11-14T21:58:15.697Z,5.00
2018-11-14T22:00:44.453Z,5.00
2018-11-14T22:03:13.130Z,5.10
2018-11-14T22:05:42.226Z,5.00
2018-11-14T22:08:10.954Z,5.00
2018-11-14T22:10:40.303Z,5.00
2018-11-14T22:13:09.391Z,5.00
2018-11-14T22:15:38.675Z,4.90
2018-11-14T22:18:08.801Z,4.80
2018-11-14T22:20:39.006Z,4.80
2018-11-14T22:23:08.589Z,4.80
2018-11-14T22:25:37.441Z,4.90
2018-11-14T22:28:06.800Z,4.80
2018-11-14T22:30:36.853Z,4.80
2018-11-14T22:33:06.197Z,4.80
2018-11-14T22:35:35.121Z,4.80
2018-11-14T22:38:03.858Z,4.80
2018-11-14T22:40:33.245Z,4.80
2018-11-14T22:43:02.869Z,4.90
2018-11-14T22:45:33.375Z,4.90
2018-11-14T22:48:02.664Z,4.90
2018-11-14T22:50:31.679Z,4.90
2018-11-14T22:53:00.648Z,4.90
2018-11-14T22:55:33.511Z,4.90
2018-11-14T23:00:42.084Z,4.90
2018-11-14T23:03:11.553Z,5.00
2018-11-14T23:05:40.441Z,5.00
2018-11-14T23:08:09.738Z,5.00
2018-11-14T23:10:39.822Z,5.00
2018-11-14T23:13:09.371Z,5.00
2018-11-14T23:15:39.486Z,5.00
2018-11-14T23:18:09.902Z,5.00
2018-11-14T23:20:39.263Z,5.00
2018-11-14T23:23:09.185Z,5.00
2018-11-14T23:25:38.533Z,5.10
2018-11-14T23:28:09.062Z,5.10
2018-11-14T23:30:37.945Z,5.10
2018-11-14T23:33:06.819Z,5.10
2018-11-14T23:35:35.866Z,5.20
2018-11-14T23:38:06.034Z,5.20
2018-11-14T23:40:34.851Z,5.10
2018-11-14T23:43:03.965Z,5.10
2018-11-14T23:45:32.963Z,5.00
2018-11-14T23:48:01.854Z,5.10
2018-11-14T23:50:32.175Z,5.00
2018-11-14T23:53:02.039Z,5.00
2018-11-14T23:55:31.856Z,5.00
2018-11-14T23:58:01.451Z,5.00
